Lago Blanco, Argentina
Current Conditions -  °F | °C
As of 3:00 PM on Sunday 25 Jan 2015 (Local Time) from SCBA Reporting Station
Scattered Clouds Scattered Clouds  
Wind Chill: 64°   Ceiling: Unl
Heat Index: 64°   Visibility: 6mi
Dew Point: 43°   Wind: 26mph
Humidity: 45%   Direction: 310°NW
Pressure: 29.8"   Gusts: NA
Location:  45.94°S, 71.27°W
Report Text: SCBA 251800Z 31023KT 9999 SCT040 SCT100 18/06 Q1009
Loading
Personal Weather Stations






























Interactive Weather Map New forecast layout! Learn more

10-Day Weather Forecast

Advertisements
Track Severe Weather on mobile